Time,TemperatureF,DewpointF,PressureIn,WindDirection,WindDirectionDegrees,WindSpeedMPH,WindSpeedGustMPH,Humidity,HourlyPrecipIn,Conditions,Clouds,dailyrainin,SoftwareType,DateUTC
2013-07-26 00:00:00,85.0,78.0,-100.00,SE,138,20.0,-999.0,80,0.00,,,-99.99,,2013-07-26 00:00:00,
2013-07-26 00:22:00,85.0,78.0,-100.00,SE,138,20.0,-999.0,80,0.00,,,-99.99,,2013-07-26 00:22:00,
2013-07-26 00:33:00,85.0,78.0,-100.00,SE,138,20.0,-999.0,80,0.00,,,-99.99,,2013-07-26 00:33:00,
2013-07-26 00:43:00,85.0,78.0,-100.00,SE,138,20.0,-999.0,80,0.00,,,-99.99,,2013-07-26 00:43:00,
2013-07-26 00:52:00,85.0,78.0,-100.00,SE,138,20.0,-999.0,80,0.00,,,-99.99,,2013-07-26 00:52:00,
2013-07-26 01:00:00,84.0,78.0,-100.00,SE,137,19.0,-999.0,81,0.00,,,-99.99,,2013-07-26 01:00:00,
2013-07-26 01:22:00,84.0,78.0,-100.00,SE,137,19.0,-999.0,81,0.00,,,-99.99,,2013-07-26 01:22:00,
2013-07-26 01:32:00,84.0,78.0,-100.00,SE,137,19.0,-999.0,81,0.00,,,-99.99,,2013-07-26 01:32:00,
2013-07-26 01:43:00,84.0,78.0,-100.00,SE,137,19.0,-999.0,81,0.00,,,-99.99,,2013-07-26 01:43:00,
2013-07-26 01:52:00,84.0,78.0,-100.00,SE,137,19.0,-999.0,81,0.00,,,-99.99,,2013-07-26 01:52:00,
2013-07-26 02:00:00,84.0,79.0,-100.00,SE,135,19.0,-999.0,83,0.00,,,-99.99,,2013-07-26 02:00:00,
2013-07-26 02:22:00,84.0,79.0,-100.00,SE,135,19.0,-999.0,83,0.00,,,-99.99,,2013-07-26 02:22:00,
2013-07-26 02:32:00,84.0,79.0,-100.00,SE,135,19.0,-999.0,83,0.00,,,-99.99,,2013-07-26 02:32:00,
2013-07-26 02:43:00,84.0,79.0,-100.00,SE,135,19.0,-999.0,83,0.00,,,-99.99,,2013-07-26 02:43:00,
2013-07-26 02:52:00,84.0,79.0,-100.00,SE,135,19.0,-999.0,83,0.00,,,-99.99,,2013-07-26 02:52:00,
2013-07-26 03:00:00,84.0,79.0,-100.00,SE,144,20.0,-999.0,84,0.00,,,-99.99,,2013-07-26 03:00:00,
2013-07-26 03:22:00,84.0,79.0,-100.00,SE,144,20.0,-999.0,84,0.00,,,-99.99,,2013-07-26 03:22:00,
2013-07-26 03:32:00,84.0,79.0,-100.00,SE,144,20.0,-999.0,84,0.00,,,-99.99,,2013-07-26 03:32:00,
2013-07-26 03:43:00,84.0,79.0,-100.00,SE,144,20.0,-999.0,84,0.00,,,-99.99,,2013-07-26 03:43:00,
2013-07-26 03:53:00,84.0,79.0,-100.00,SE,144,20.0,-999.0,84,0.00,,,-99.99,,2013-07-26 03:53:00,
2013-07-26 04:00:00,84.0,79.0,-100.00,SSE,154,19.0,-999.0,85,0.00,,,-99.99,,2013-07-26 04:00:00,
2013-07-26 04:22:00,84.0,79.0,-100.00,SSE,154,19.0,-999.0,85,0.00,,,-99.99,,2013-07-26 04:22:00,
2013-07-26 04:32:00,84.0,79.0,-100.00,SSE,154,19.0,-999.0,85,0.00,,,-99.99,,2013-07-26 04:32:00,
2013-07-26 04:42:00,84.0,79.0,-100.00,SSE,154,19.0,-999.0,85,0.00,,,-99.99,,2013-07-26 04:42:00,
2013-07-26 04:53:00,84.0,79.0,-100.00,SSE,154,19.0,-999.0,85,0.00,,,-99.99,,2013-07-26 04:53:00,
2013-07-26 05:00:00,84.0,78.0,-100.00,SSE,159,19.0,-999.0,84,0.00,,,-99.99,,2013-07-26 05:00:00,
2013-07-26 05:22:00,84.0,78.0,-100.00,SSE,159,19.0,-999.0,84,0.00,,,-99.99,,2013-07-26 05:22:00,
2013-07-26 05:32:00,84.0,78.0,-100.00,SSE,159,19.0,-999.0,84,0.00,,,-99.99,,2013-07-26 05:32:00,
2013-07-26 05:43:00,84.0,78.0,-100.00,SSE,159,19.0,-999.0,84,0.00,,,-99.99,,2013-07-26 05:43:00,
2013-07-26 05:52:00,84.0,78.0,-100.00,SSE,159,19.0,-999.0,84,0.00,,,-99.99,,2013-07-26 05:52:00,
2013-07-26 06:00:00,83.0,78.0,-100.00,SSE,164,17.0,-999.0,84,0.00,,,-99.99,,2013-07-26 06:00:00,
2013-07-26 06:22:00,83.0,78.0,-100.00,SSE,164,17.0,-999.0,84,0.00,,,-99.99,,2013-07-26 06:22:00,
2013-07-26 06:33:00,83.0,78.0,-100.00,SSE,164,17.0,-999.0,84,0.00,,,-99.99,,2013-07-26 06:33:00,
2013-07-26 06:43:00,83.0,78.0,-100.00,SSE,164,17.0,-999.0,84,0.00,,,-99.99,,2013-07-26 06:43:00,
2013-07-26 06:52:00,83.0,78.0,-100.00,SSE,164,17.0,-999.0,84,0.00,,,-99.99,,2013-07-26 06:52:00,
2013-07-26 07:00:00,83.0,78.0,-100.00,SSE,168,15.0,-999.0,84,0.00,,,-99.99,,2013-07-26 07:00:00,
2013-07-26 07:22:00,83.0,78.0,-100.00,SSE,168,15.0,-999.0,84,0.00,,,-99.99,,2013-07-26 07:22:00,
2013-07-26 07:32:00,83.0,78.0,-100.00,SSE,168,15.0,-999.0,84,0.00,,,-99.99,,2013-07-26 07:32:00,
2013-07-26 07:43:00,83.0,78.0,-100.00,SSE,168,15.0,-999.0,84,0.00,,,-99.99,,2013-07-26 07:43:00,
2013-07-26 07:53:00,83.0,78.0,-100.00,SSE,168,15.0,-999.0,84,0.00,,,-99.99,,2013-07-26 07:53:00,
2013-07-26 08:00:00,83.0,77.0,-100.00,South,174,16.0,-999.0,82,0.00,,,-99.99,,2013-07-26 08:00:00,
2013-07-26 08:22:00,83.0,77.0,-100.00,South,174,16.0,-999.0,82,0.00,,,-99.99,,2013-07-26 08:22:00,
2013-07-26 08:32:00,83.0,77.0,-100.00,South,174,16.0,-999.0,82,0.00,,,-99.99,,2013-07-26 08:32:00,
2013-07-26 08:44:00,83.0,77.0,-100.00,South,174,16.0,-999.0,82,0.00,,,-99.99,,2013-07-26 08:44:00,
2013-07-26 08:52:00,83.0,77.0,-100.00,South,174,16.0,-999.0,82,0.00,,,-99.99,,2013-07-26 08:52:00,
2013-07-26 09:00:00,82.0,77.0,-100.00,South,182,14.0,-999.0,84,0.00,,,-99.99,,2013-07-26 09:00:00,
2013-07-26 09:22:00,82.0,77.0,-100.00,South,182,14.0,-999.0,84,0.00,,,-99.99,,2013-07-26 09:22:00,
2013-07-26 09:32:00,82.0,77.0,-100.00,South,182,14.0,-999.0,84,0.00,,,-99.99,,2013-07-26 09:32:00,
2013-07-26 09:43:00,82.0,77.0,-100.00,South,182,14.0,-999.0,84,0.00,,,-99.99,,2013-07-26 09:43:00,
2013-07-26 09:52:00,82.0,77.0,-100.00,South,182,14.0,-999.0,84,0.00,,,-99.99,,2013-07-26 09:52:00,
2013-07-26 10:00:00,82.0,76.0,-100.00,South,183,14.0,-999.0,83,0.00,,,-99.99,,2013-07-26 10:00:00,
2013-07-26 10:22:00,82.0,76.0,-100.00,South,183,14.0,-999.0,83,0.00,,,-99.99,,2013-07-26 10:22:00,
2013-07-26 10:33:00,82.0,76.0,-100.00,South,183,14.0,-999.0,83,0.00,,,-99.99,,2013-07-26 10:33:00,
2013-07-26 10:42:00,82.0,76.0,-100.00,South,183,14.0,-999.0,83,0.00,,,-99.99,,2013-07-26 10:42:00,
2013-07-26 10:52:00,82.0,76.0,-100.00,South,183,14.0,-999.0,83,0.00,,,-99.99,,2013-07-26 10:52:00,
2013-07-26 11:00:00,82.0,76.0,-100.00,South,184,13.0,-999.0,83,0.00,,,-99.99,,2013-07-26 11:00:00,
2013-07-26 11:22:00,82.0,76.0,-100.00,South,184,13.0,-999.0,83,0.00,,,-99.99,,2013-07-26 11:22:00,
2013-07-26 11:32:00,82.0,76.0,-100.00,South,184,13.0,-999.0,83,0.00,,,-99.99,,2013-07-26 11:32:00,
2013-07-26 11:43:00,82.0,76.0,-100.00,South,184,13.0,-999.0,83,0.00,,,-99.99,,2013-07-26 11:43:00,
2013-07-26 11:52:00,82.0,76.0,-100.00,South,184,13.0,-999.0,83,0.00,,,-99.99,,2013-07-26 11:52:00,
2013-07-26 12:22:00,82.0,76.0,-100.00,South,178,13.0,-999.0,84,0.00,,,-99.99,,2013-07-26 12:22:00,
2013-07-26 12:33:00,82.0,76.0,-100.00,South,178,13.0,-999.0,84,0.00,,,-99.99,,2013-07-26 12:33:00,
2013-07-26 12:43:00,82.0,76.0,-100.00,South,178,13.0,-999.0,84,0.00,,,-99.99,,2013-07-26 12:43:00,
2013-07-26 12:53:00,82.0,76.0,-100.00,South,178,13.0,-999.0,84,0.00,,,-99.99,,2013-07-26 12:53:00,
2013-07-26 13:00:00,82.0,77.0,-100.00,South,179,12.0,-999.0,84,0.00,,,-99.99,,2013-07-26 13:00:00,
2013-07-26 13:22:00,82.0,77.0,-100.00,South,179,12.0,-999.0,84,0.00,,,-99.99,,2013-07-26 13:22:00,
2013-07-26 13:32:00,82.0,77.0,-100.00,South,179,12.0,-999.0,84,0.00,,,-99.99,,2013-07-26 13:32:00,
2013-07-26 13:43:00,82.0,77.0,-100.00,South,179,12.0,-999.0,84,0.00,,,-99.99,,2013-07-26 13:43:00,
2013-07-26 14:00:00,83.0,77.0,-100.00,South,183,16.0,-999.0,80,0.00,,,-99.99,,2013-07-26 14:00:00,
2013-07-26 14:22:00,83.0,77.0,-100.00,South,183,16.0,-999.0,80,0.00,,,-99.99,,2013-07-26 14:22:00,
2013-07-26 14:32:00,83.0,77.0,-100.00,South,183,16.0,-999.0,80,0.00,,,-99.99,,2013-07-26 14:32:00,
2013-07-26 14:43:00,83.0,77.0,-100.00,South,183,16.0,-999.0,80,0.00,,,-99.99,,2013-07-26 14:43:00,
2013-07-26 14:53:00,83.0,77.0,-100.00,South,183,16.0,-999.0,80,0.00,,,-99.99,,2013-07-26 14:53:00,
2013-07-26 15:00:00,84.0,76.0,-100.00,South,169,17.0,-999.0,77,0.00,,,-99.99,,2013-07-26 15:00:00,
2013-07-26 15:22:00,84.0,76.0,-100.00,South,169,17.0,-999.0,77,0.00,,,-99.99,,2013-07-26 15:22:00,
2013-07-26 15:32:00,84.0,76.0,-100.00,South,169,17.0,-999.0,77,0.00,,,-99.99,,2013-07-26 15:32:00,
2013-07-26 15:43:00,84.0,76.0,-100.00,South,169,17.0,-999.0,77,0.00,,,-99.99,,2013-07-26 15:43:00,
2013-07-26 15:53:00,84.0,76.0,-100.00,South,169,17.0,-999.0,77,0.00,,,-99.99,,2013-07-26 15:53:00,
2013-07-26 16:00:00,84.0,76.0,-100.00,SSE,156,20.0,-999.0,77,0.00,,,-99.99,,2013-07-26 16:00:00,
2013-07-26 16:22:00,84.0,76.0,-100.00,SSE,156,20.0,-999.0,77,0.00,,,-99.99,,2013-07-26 16:22:00,
2013-07-26 16:32:00,84.0,76.0,-100.00,SSE,156,20.0,-999.0,77,0.00,,,-99.99,,2013-07-26 16:32:00,
2013-07-26 16:43:00,84.0,76.0,-100.00,SSE,156,20.0,-999.0,77,0.00,,,-99.99,,2013-07-26 16:43:00,
2013-07-26 16:54:00,84.0,76.0,-100.00,SSE,156,20.0,-999.0,77,0.00,,,-99.99,,2013-07-26 16:54:00,
2013-07-26 17:00:00,84.0,77.0,-100.00,SSE,154,20.0,-999.0,79,0.00,,,-99.99,,2013-07-26 17:00:00,
2013-07-26 17:22:00,84.0,77.0,-100.00,SSE,154,20.0,-999.0,79,0.00,,,-99.99,,2013-07-26 17:22:00,
2013-07-26 17:33:00,84.0,77.0,-100.00,SSE,154,20.0,-999.0,79,0.00,,,-99.99,,2013-07-26 17:33:00,
2013-07-26 17:43:00,84.0,77.0,-100.00,SSE,154,20.0,-999.0,79,0.00,,,-99.99,,2013-07-26 17:43:00,
2013-07-26 17:53:00,84.0,77.0,-100.00,SSE,154,20.0,-999.0,79,0.00,,,-99.99,,2013-07-26 17:53:00,
2013-07-26 18:00:00,84.0,77.0,-100.00,SSE,152,19.0,-999.0,80,0.00,,,-99.99,,2013-07-26 18:00:00,
2013-07-26 18:23:00,84.0,77.0,-100.00,SSE,152,19.0,-999.0,80,0.00,,,-99.99,,2013-07-26 18:23:00,
2013-07-26 18:33:00,84.0,77.0,-100.00,SSE,152,19.0,-999.0,80,0.00,,,-99.99,,2013-07-26 18:33:00,
2013-07-26 18:43:00,84.0,77.0,-100.00,SSE,152,19.0,-999.0,80,0.00,,,-99.99,,2013-07-26 18:43:00,
2013-07-26 18:52:00,84.0,77.0,-100.00,SSE,152,19.0,-999.0,80,0.00,,,-99.99,,2013-07-26 18:52:00,
2013-07-26 19:00:00,84.0,78.0,-100.00,SSE,154,19.0,-999.0,80,0.00,,,-99.99,,2013-07-26 19:00:00,
2013-07-26 19:22:00,84.0,78.0,-100.00,SSE,154,19.0,-999.0,80,0.00,,,-99.99,,2013-07-26 19:22:00,
2013-07-26 19:32:00,84.0,78.0,-100.00,SSE,154,19.0,-999.0,80,0.00,,,-99.99,,2013-07-26 19:32:00,
2013-07-26 19:43:00,84.0,78.0,-100.00,SSE,154,19.0,-999.0,80,0.00,,,-99.99,,2013-07-26 19:43:00,
2013-07-26 19:52:00,84.0,78.0,-100.00,SSE,154,19.0,-999.0,80,0.00,,,-99.99,,2013-07-26 19:52:00,
2013-07-26 20:00:00,85.0,78.0,-100.00,SSE,154,19.0,-999.0,81,0.00,,,-99.99,,2013-07-26 20:00:00,
2013-07-26 20:22:00,85.0,78.0,-100.00,SSE,154,19.0,-999.0,81,0.00,,,-99.99,,2013-07-26 20:22:00,
2013-07-26 20:32:00,85.0,78.0,-100.00,SSE,154,19.0,-999.0,81,0.00,,,-99.99,,2013-07-26 20:32:00,
2013-07-26 20:43:00,85.0,78.0,-100.00,SSE,154,19.0,-999.0,81,0.00,,,-99.99,,2013-07-26 20:43:00,
2013-07-26 20:53:00,85.0,78.0,-100.00,SSE,154,19.0,-999.0,81,0.00,,,-99.99,,2013-07-26 20:53:00,
2013-07-26 21:00:00,84.0,78.0,-100.00,SSE,148,19.0,-999.0,82,0.00,,,-99.99,,2013-07-26 21:00:00,
2013-07-26 21:22:00,84.0,78.0,-100.00,SSE,148,19.0,-999.0,82,0.00,,,-99.99,,2013-07-26 21:22:00,
2013-07-26 21:32:00,84.0,78.0,-100.00,SSE,148,19.0,-999.0,82,0.00,,,-99.99,,2013-07-26 21:32:00,
2013-07-26 21:43:00,84.0,78.0,-100.00,SSE,148,19.0,-999.0,82,0.00,,,-99.99,,2013-07-26 21:43:00,
2013-07-26 21:53:00,84.0,78.0,-100.00,SSE,148,19.0,-999.0,82,0.00,,,-99.99,,2013-07-26 21:53:00,
2013-07-26 22:00:00,84.0,78.0,-100.00,SE,146,21.0,-999.0,81,0.00,,,-99.99,,2013-07-26 22:00:00,
2013-07-26 22:22:00,84.0,78.0,-100.00,SE,146,21.0,-999.0,81,0.00,,,-99.99,,2013-07-26 22:22:00,
2013-07-26 22:33:00,84.0,78.0,-100.00,SE,146,21.0,-999.0,81,0.00,,,-99.99,,2013-07-26 22:33:00,
2013-07-26 22:43:00,84.0,78.0,-100.00,SE,146,21.0,-999.0,81,0.00,,,-99.99,,2013-07-26 22:43:00,
2013-07-26 22:53:00,84.0,78.0,-100.00,SE,146,21.0,-999.0,81,0.00,,,-99.99,,2013-07-26 22:53:00,
2013-07-26 23:00:00,84.0,78.0,-100.00,SSE,147,23.0,-999.0,81,0.00,,,-99.99,,2013-07-26 23:00:00,
2013-07-26 23:22:00,84.0,78.0,-100.00,SSE,147,23.0,-999.0,81,0.00,,,-99.99,,2013-07-26 23:22:00,
2013-07-26 23:32:00,84.0,78.0,-100.00,SSE,147,23.0,-999.0,81,0.00,,,-99.99,,2013-07-26 23:32:00,
2013-07-26 23:43:00,84.0,78.0,-100.00,SSE,147,23.0,-999.0,81,0.00,,,-99.99,,2013-07-26 23:43:00,
2013-07-26 23:53:00,84.0,78.0,-100.00,SSE,147,23.0,-999.0,81,0.00,,,-99.99,,2013-07-26 23:53:00,